sensor_id;sensor_type;location;lat;lon;timestamp;temperature;humidity
19188;DHT22;9726;52.198;8.792;2024-03-23T00:53:35;6.90;99.90
19188;DHT22;9726;52.198;8.792;2024-03-23T00:56:01;6.90;99.90
19188;DHT22;9726;52.198;8.792;2024-03-23T00:58:29;6.90;99.90
19188;DHT22;9726;52.198;8.792;2024-03-23T01:00:55;6.80;99.90
19188;DHT22;9726;52.198;8.792;2024-03-23T01:03:21;6.80;99.80
19188;DHT22;9726;52.198;8.792;2024-03-23T01:05:47;6.80;99.90
19188;DHT22;9726;52.198;8.792;2024-03-23T01:08:14;6.80;99.90
19188;DHT22;9726;52.198;8.792;2024-03-23T01:10:41;6.80;99.90
19188;DHT22;9726;52.198;8.792;2024-03-23T01:13:07;6.70;99.90
19188;DHT22;9726;52.198;8.792;2024-03-23T01:15:33;6.70;99.90
19188;DHT22;9726;52.198;8.792;2024-03-23T01:17:59;6.80;99.90
19188;DHT22;9726;52.198;8.792;2024-03-23T01:20:25;6.70;99.90
19188;DHT22;9726;52.198;8.792;2024-03-23T01:22:53;6.70;99.90
19188;DHT22;9726;52.198;8.792;2024-03-23T01:25:19;6.70;99.90
19188;DHT22;9726;52.198;8.792;2024-03-23T01:27:45;6.70;99.90
19188;DHT22;9726;52.198;8.792;2024-03-23T01:30:11;6.60;99.90
19188;DHT22;9726;52.198;8.792;2024-03-23T01:32:39;6.60;99.90
19188;DHT22;9726;52.198;8.792;2024-03-23T01:35:30;6.70;99.90
19188;DHT22;9726;52.198;8.792;2024-03-23T01:37:57;6.60;99.90
19188;DHT22;9726;52.198;8.792;2024-03-23T01:40:23;6.60;99.90
19188;DHT22;9726;52.198;8.792;2024-03-23T01:43:03;6.60;99.90
19188;DHT22;9726;52.198;8.792;2024-03-23T01:45:30;6.50;99.90
19188;DHT22;9726;52.198;8.792;2024-03-23T01:47:57;6.50;99.90
19188;DHT22;9726;52.198;8.792;2024-03-23T01:50:24;6.60;99.90
19188;DHT22;9726;52.198;8.792;2024-03-23T01:52:51;6.50;99.90
19188;DHT22;9726;52.198;8.792;2024-03-23T01:55:17;6.50;99.90
19188;DHT22;9726;52.198;8.792;2024-03-23T01:57:43;6.50;99.90
19188;DHT22;9726;52.198;8.792;2024-03-23T02:00:10;6.50;99.90
19188;DHT22;9726;52.198;8.792;2024-03-23T02:02:45;6.50;99.90
19188;DHT22;9726;52.198;8.792;2024-03-23T02:05:12;6.40;99.90
19188;DHT22;9726;52.198;8.792;2024-03-23T02:07:42;6.50;99.90
19188;DHT22;9726;52.198;8.792;2024-03-23T02:10:09;6.50;99.90
19188;DHT22;9726;52.198;8.792;2024-03-23T02:12:36;6.50;99.90
19188;DHT22;9726;52.198;8.792;2024-03-23T02:15:03;6.50;99.90
19188;DHT22;9726;52.198;8.792;2024-03-23T02:17:32;6.50;99.90
19188;DHT22;9726;52.198;8.792;2024-03-23T02:19:59;6.50;99.90
19188;DHT22;9726;52.198;8.792;2024-03-23T02:22:37;6.40;99.90
19188;DHT22;9726;52.198;8.792;2024-03-23T02:25:05;6.50;99.90
19188;DHT22;9726;52.198;8.792;2024-03-23T02:27:31;6.30;99.90
19188;DHT22;9726;52.198;8.792;2024-03-23T02:29:59;6.40;99.90
19188;DHT22;9726;52.198;8.792;2024-03-23T02:32:25;6.40;99.90
19188;DHT22;9726;52.198;8.792;2024-03-23T02:34:52;6.40;99.90
19188;DHT22;9726;52.198;8.792;2024-03-23T02:37:18;6.30;99.90
19188;DHT22;9726;52.198;8.792;2024-03-23T02:39:44;6.30;99.90
19188;DHT22;9726;52.198;8.792;2024-03-23T02:42:10;6.30;99.90
19188;DHT22;9726;52.198;8.792;2024-03-23T02:44:36;6.30;99.90
19188;DHT22;9726;52.198;8.792;2024-03-23T02:47:02;6.20;99.60
19188;DHT22;9726;52.198;8.792;2024-03-23T02:49:28;6.20;99.70
19188;DHT22;9726;52.198;8.792;2024-03-23T02:51:54;6.20;99.70
19188;DHT22;9726;52.198;8.792;2024-03-23T02:54:20;6.20;99.90
19188;DHT22;9726;52.198;8.792;2024-03-23T02:56:47;6.20;99.90
19188;DHT22;9726;52.198;8.792;2024-03-23T02:59:13;6.10;99.90
19188;DHT22;9726;52.198;8.792;2024-03-23T03:01:39;6.10;99.90
19188;DHT22;9726;52.198;8.792;2024-03-23T03:04:05;6.10;99.90
19188;DHT22;9726;52.198;8.792;2024-03-23T03:06:31;6.10;99.90
19188;DHT22;9726;52.198;8.792;2024-03-23T03:08:57;6.10;99.90
19188;DHT22;9726;52.198;8.792;2024-03-23T03:11:24;6.10;99.90
19188;DHT22;9726;52.198;8.792;2024-03-23T03:13:50;6.00;99.60
19188;DHT22;9726;52.198;8.792;2024-03-23T03:16:16;6.00;99.40
19188;DHT22;9726;52.198;8.792;2024-03-23T03:18:42;6.00;99.40
19188;DHT22;9726;52.198;8.792;2024-03-23T03:21:10;6.00;98.80
19188;DHT22;9726;52.198;8.792;2024-03-23T03:23:39;5.90;98.50
19188;DHT22;9726;52.198;8.792;2024-03-23T03:26:06;5.90;98.50
19188;DHT22;9726;52.198;8.792;2024-03-23T03:28:33;5.90;97.90
19188;DHT22;9726;52.198;8.792;2024-03-23T03:31:00;5.80;98.20
19188;DHT22;9726;52.198;8.792;2024-03-23T03:33:29;5.80;98.70
19188;DHT22;9726;52.198;8.792;2024-03-23T03:35:55;5.90;98.60
19188;DHT22;9726;52.198;8.792;2024-03-23T03:38:22;5.90;98.80
19188;DHT22;9726;52.198;8.792;2024-03-23T03:40:48;5.90;98.90
19188;DHT22;9726;52.198;8.792;2024-03-23T03:43:14;5.90;98.90
19188;DHT22;9726;52.198;8.792;2024-03-23T03:45:40;5.80;99.10
19188;DHT22;9726;52.198;8.792;2024-03-23T03:48:06;5.90;99.20
19188;DHT22;9726;52.198;8.792;2024-03-23T03:50:33;5.80;99.10
19188;DHT22;9726;52.198;8.792;2024-03-23T03:52:59;5.80;99.00
19188;DHT22;9726;52.198;8.792;2024-03-23T03:55:25;5.80;98.80
19188;DHT22;9726;52.198;8.792;2024-03-23T03:57:51;5.90;98.40
19188;DHT22;9726;52.198;8.792;2024-03-23T04:00:18;5.80;98.20
19188;DHT22;9726;52.198;8.792;2024-03-23T04:02:44;5.80;98.30
19188;DHT22;9726;52.198;8.792;2024-03-23T04:05:10;5.80;98.60
19188;DHT22;9726;52.198;8.792;2024-03-23T04:07:36;5.80;98.40
19188;DHT22;9726;52.198;8.792;2024-03-23T04:10:03;5.80;98.60
19188;DHT22;9726;52.198;8.792;2024-03-23T04:12:33;5.80;98.80
19188;DHT22;9726;52.198;8.792;2024-03-23T04:14:59;5.90;99.10
19188;DHT22;9726;52.198;8.792;2024-03-23T04:17:27;5.80;98.80
19188;DHT22;9726;52.198;8.792;2024-03-23T04:19:58;5.80;98.90
19188;DHT22;9726;52.198;8.792;2024-03-23T04:22:24;5.80;98.80
19188;DHT22;9726;52.198;8.792;2024-03-23T04:24:55;5.80;99.00
19188;DHT22;9726;52.198;8.792;2024-03-23T04:27:22;5.80;99.20
19188;DHT22;9726;52.198;8.792;2024-03-23T04:29:52;5.80;99.10
19188;DHT22;9726;52.198;8.792;2024-03-23T04:32:21;5.90;98.90
19188;DHT22;9726;52.198;8.792;2024-03-23T04:34:47;5.80;99.10
19188;DHT22;9726;52.198;8.792;2024-03-23T04:37:14;5.80;99.20
19188;DHT22;9726;52.198;8.792;2024-03-23T04:39:40;5.80;99.30
19188;DHT22;9726;52.198;8.792;2024-03-23T04:42:07;5.80;99.30
19188;DHT22;9726;52.198;8.792;2024-03-23T04:44:33;5.90;99.50
19188;DHT22;9726;52.198;8.792;2024-03-23T04:47:00;5.80;99.40
19188;DHT22;9726;52.198;8.792;2024-03-23T04:49:26;5.80;99.50
19188;DHT22;9726;52.198;8.792;2024-03-23T04:51:52;5.90;99.30
19188;DHT22;9726;52.198;8.792;2024-03-23T04:54:19;5.80;99.40
19188;DHT22;9726;52.198;8.792;2024-03-23T04:56:48;5.90;99.50
19188;DHT22;9726;52.198;8.792;2024-03-23T04:59:14;5.80;99.60
19188;DHT22;9726;52.198;8.792;2024-03-23T05:01:40;5.80;99.70
19188;DHT22;9726;52.198;8.792;2024-03-23T05:04:09;5.80;99.80
19188;DHT22;9726;52.198;8.792;2024-03-23T05:06:35;5.70;99.90
19188;DHT22;9726;52.198;8.792;2024-03-23T05:09:02;5.70;99.90
19188;DHT22;9726;52.198;8.792;2024-03-23T05:11:33;5.80;99.90
19188;DHT22;9726;52.198;8.792;2024-03-23T05:14:00;5.70;99.90
19188;DHT22;9726;52.198;8.792;2024-03-23T05:16:26;5.70;99.90
19188;DHT22;9726;52.198;8.792;2024-03-23T05:18:52;5.70;99.90
19188;DHT22;9726;52.198;8.792;2024-03-23T05:21:19;5.70;99.90
19188;DHT22;9726;52.198;8.792;2024-03-23T05:23:45;5.70;99.90
19188;DHT22;9726;52.198;8.792;2024-03-23T05:26:11;5.60;99.90
19188;DHT22;9726;52.198;8.792;2024-03-23T05:28:37;5.60;99.90
19188;DHT22;9726;52.198;8.792;2024-03-23T05:31:04;5.60;99.90
19188;DHT22;9726;52.198;8.792;2024-03-23T05:33:30;5.60;99.90
19188;DHT22;9726;52.198;8.792;2024-03-23T05:36:00;5.60;99.90
19188;DHT22;9726;52.198;8.792;2024-03-23T05:38:27;5.60;99.90
19188;DHT22;9726;52.198;8.792;2024-03-23T05:40:58;5.60;99.90
19188;DHT22;9726;52.198;8.792;2024-03-23T05:43:25;5.60;99.90
19188;DHT22;9726;52.198;8.792;2024-03-23T05:45:58;5.60;99.90
19188;DHT22;9726;52.198;8.792;2024-03-23T05:48:28;5.60;99.90
19188;DHT22;9726;52.198;8.792;2024-03-23T05:50:56;5.60;99.90
19188;DHT22;9726;52.198;8.792;2024-03-23T05:53:23;5.60;99.90
19188;DHT22;9726;52.198;8.792;2024-03-23T05:55:50;5.60;99.90
19188;DHT22;9726;52.198;8.792;2024-03-23T05:58:17;5.60;99.90
19188;DHT22;9726;52.198;8.792;2024-03-23T06:00:44;5.60;99.90
19188;DHT22;9726;52.198;8.792;2024-03-23T06:03:11;5.60;99.90
19188;DHT22;9726;52.198;8.792;2024-03-23T06:05:37;5.60;99.90
19188;DHT22;9726;52.198;8.792;2024-03-23T06:08:04;5.70;99.90
19188;DHT22;9726;52.198;8.792;2024-03-23T06:10:30;5.70;99.90
19188;DHT22;9726;52.198;8.792;2024-03-23T06:12:57;5.70;99.60
19188;DHT22;9726;52.198;8.792;2024-03-23T06:15:25;5.80;99.60
19188;DHT22;9726;52.198;8.792;2024-03-23T06:17:51;5.70;99.80
19188;DHT22;9726;52.198;8.792;2024-03-23T06:20:17;5.80;99.90
19188;DHT22;9726;52.198;8.792;2024-03-23T06:22:44;5.80;99.70
19188;DHT22;9726;52.198;8.792;2024-03-23T06:25:10;5.80;99.60
19188;DHT22;9726;52.198;8.792;2024-03-23T06:27:38;5.80;99.50
19188;DHT22;9726;52.198;8.792;2024-03-23T06:30:05;5.90;99.60
19188;DHT22;9726;52.198;8.792;2024-03-23T06:32:32;6.00;99.20
19188;DHT22;9726;52.198;8.792;2024-03-23T06:34:58;6.00;98.80
19188;DHT22;9726;52.198;8.792;2024-03-23T06:37:25;6.10;98.70
19188;DHT22;9726;52.198;8.792;2024-03-23T06:39:52;6.10;98.50
19188;DHT22;9726;52.198;8.792;2024-03-23T06:42:21;6.20;98.20
19188;DHT22;9726;52.198;8.792;2024-03-23T06:44:47;6.20;98.10
19188;DHT22;9726;52.198;8.792;2024-03-23T06:47:13;6.20;97.50
19188;DHT22;9726;52.198;8.792;2024-03-23T06:49:39;6.30;97.40
19188;DHT22;9726;52.198;8.792;2024-03-23T06:52:05;6.30;96.70
19188;DHT22;9726;52.198;8.792;2024-03-23T06:54:32;6.40;96.20
19188;DHT22;9726;52.198;8.792;2024-03-23T06:56:58;6.40;95.80
19188;DHT22;9726;52.198;8.792;2024-03-23T06:59:24;6.50;95.90
19188;DHT22;9726;52.198;8.792;2024-03-23T07:01:51;6.50;95.60
19188;DHT22;9726;52.198;8.792;2024-03-23T07:04:17;6.50;95.20
19188;DHT22;9726;52.198;8.792;2024-03-23T07:06:45;6.50;95.40
19188;DHT22;9726;52.198;8.792;2024-03-23T07:09:11;6.50;95.10
19188;DHT22;9726;52.198;8.792;2024-03-23T07:11:38;6.50;95.00
19188;DHT22;9726;52.198;8.792;2024-03-23T07:14:04;6.50;95.30
19188;DHT22;9726;52.198;8.792;2024-03-23T07:16:30;6.50;95.10
19188;DHT22;9726;52.198;8.792;2024-03-23T07:18:57;6.50;95.30
19188;DHT22;9726;52.198;8.792;2024-03-23T07:21:23;6.50;95.00
19188;DHT22;9726;52.198;8.792;2024-03-23T07:23:49;6.40;94.40
19188;DHT22;9726;52.198;8.792;2024-03-23T07:26:15;6.40;94.50
19188;DHT22;9726;52.198;8.792;2024-03-23T07:28:43;6.40;94.40
19188;DHT22;9726;52.198;8.792;2024-03-23T07:31:12;6.40;94.00
19188;DHT22;9726;52.198;8.792;2024-03-23T07:33:44;6.50;94.20
19188;DHT22;9726;52.198;8.792;2024-03-23T07:36:13;6.50;92.90
19188;DHT22;9726;52.198;8.792;2024-03-23T07:38:43;6.60;92.60
19188;DHT22;9726;52.198;8.792;2024-03-23T07:41:17;6.80;92.60
19188;DHT22;9726;52.198;8.792;2024-03-23T07:43:44;6.80;91.40
19188;DHT22;9726;52.198;8.792;2024-03-23T07:46:11;6.80;90.30
19188;DHT22;9726;52.198;8.792;2024-03-23T07:48:40;6.90;89.90
19188;DHT22;9726;52.198;8.792;2024-03-23T07:51:11;7.10;89.50
19188;DHT22;9726;52.198;8.792;2024-03-23T07:53:38;7.20;87.50
19188;DHT22;9726;52.198;8.792;2024-03-23T07:56:07;7.40;87.40
19188;DHT22;9726;52.198;8.792;2024-03-23T07:58:34;7.40;86.70
19188;DHT22;9726;52.198;8.792;2024-03-23T08:01:08;7.50;87.60
19188;DHT22;9726;52.198;8.792;2024-03-23T08:03:39;7.60;86.50
19188;DHT22;9726;52.198;8.792;2024-03-23T08:08:39;7.80;85.30
19188;DHT22;9726;52.198;8.792;2024-03-23T08:11:05;7.80;84.50
19188;DHT22;9726;52.198;8.792;2024-03-23T08:13:32;7.70;83.30
19188;DHT22;9726;52.198;8.792;2024-03-23T08:15:59;7.70;83.60
19188;DHT22;9726;52.198;8.792;2024-03-23T08:18:27;7.60;83.20
19188;DHT22;9726;52.198;8.792;2024-03-23T08:20:57;7.50;83.30
19188;DHT22;9726;52.198;8.792;2024-03-23T08:23:25;7.40;84.20
19188;DHT22;9726;52.198;8.792;2024-03-23T08:25:51;7.50;83.20
19188;DHT22;9726;52.198;8.792;2024-03-23T08:28:18;7.80;83.10
19188;DHT22;9726;52.198;8.792;2024-03-23T08:30:44;8.20;81.00
19188;DHT22;9726;52.198;8.792;2024-03-23T08:33:10;8.50;79.60
19188;DHT22;9726;52.198;8.792;2024-03-23T08:35:36;8.80;78.80
19188;DHT22;9726;52.198;8.792;2024-03-23T08:38:03;8.70;77.60
19188;DHT22;9726;52.198;8.792;2024-03-23T08:40:29;8.50;76.30
19188;DHT22;9726;52.198;8.792;2024-03-23T08:42:55;8.10;76.00
19188;DHT22;9726;52.198;8.792;2024-03-23T08:45:22;8.00;77.70
19188;DHT22;9726;52.198;8.792;2024-03-23T08:47:48;8.00;78.40
19188;DHT22;9726;52.198;8.792;2024-03-23T08:50:14;7.90;76.80
19188;DHT22;9726;52.198;8.792;2024-03-23T08:52:40;7.90;75.50
19188;DHT22;9726;52.198;8.792;2024-03-23T08:55:07;7.80;75.80
19188;DHT22;9726;52.198;8.792;2024-03-23T08:57:33;7.80;75.00
19188;DHT22;9726;52.198;8.792;2024-03-23T08:59:59;7.70;74.60
19188;DHT22;9726;52.198;8.792;2024-03-23T09:02:25;7.70;75.20
19188;DHT22;9726;52.198;8.792;2024-03-23T09:04:51;7.90;75.60
19188;DHT22;9726;52.198;8.792;2024-03-23T09:07:24;8.10;74.80
19188;DHT22;9726;52.198;8.792;2024-03-23T09:09:50;8.20;74.70
19188;DHT22;9726;52.198;8.792;2024-03-23T09:12:16;8.30;73.60
19188;DHT22;9726;52.198;8.792;2024-03-23T09:14:42;8.40;73.20
19188;DHT22;9726;52.198;8.792;2024-03-23T09:17:08;8.40;70.70
19188;DHT22;9726;52.198;8.792;2024-03-23T09:19:35;8.50;71.50
19188;DHT22;9726;52.198;8.792;2024-03-23T09:22:01;8.40;70.50
19188;DHT22;9726;52.198;8.792;2024-03-23T09:24:28;8.30;69.90
19188;DHT22;9726;52.198;8.792;2024-03-23T09:26:54;8.10;70.60
19188;DHT22;9726;52.198;8.792;2024-03-23T09:29:20;8.30;71.50
19188;DHT22;9726;52.198;8.792;2024-03-23T09:31:47;8.50;70.70
19188;DHT22;9726;52.198;8.792;2024-03-23T09:34:14;8.70;69.70
19188;DHT22;9726;52.198;8.792;2024-03-23T09:36:41;9.00;67.60
19188;DHT22;9726;52.198;8.792;2024-03-23T09:39:07;9.00;67.10
19188;DHT22;9726;52.198;8.792;2024-03-23T09:41:36;8.90;65.90
19188;DHT22;9726;52.198;8.792;2024-03-23T09:44:05;9.00;64.50
19188;DHT22;9726;52.198;8.792;2024-03-23T09:46:33;9.00;62.60
19188;DHT22;9726;52.198;8.792;2024-03-23T09:49:03;9.20;62.80
19188;DHT22;9726;52.198;8.792;2024-03-23T09:51:31;9.30;62.60
19188;DHT22;9726;52.198;8.792;2024-03-23T09:53:58;9.70;62.90
19188;DHT22;9726;52.198;8.792;2024-03-23T09:56:25;9.80;63.30
19188;DHT22;9726;52.198;8.792;2024-03-23T09:58:51;9.90;61.10
19188;DHT22;9726;52.198;8.792;2024-03-23T10:01:17;9.90;62.10
19188;DHT22;9726;52.198;8.792;2024-03-23T10:03:45;9.80;59.50
19188;DHT22;9726;52.198;8.792;2024-03-23T10:06:13;9.40;62.80
19188;DHT22;9726;52.198;8.792;2024-03-23T10:08:39;8.80;70.90
19188;DHT22;9726;52.198;8.792;2024-03-23T10:11:25;8.60;74.40
19188;DHT22;9726;52.198;8.792;2024-03-23T10:13:53;8.50;74.10
19188;DHT22;9726;52.198;8.792;2024-03-23T10:16:23;8.60;74.00
19188;DHT22;9726;52.198;8.792;2024-03-23T10:18:50;8.30;69.50
19188;DHT22;9726;52.198;8.792;2024-03-23T10:21:16;8.30;71.50
19188;DHT22;9726;52.198;8.792;2024-03-23T10:23:44;8.40;69.10
19188;DHT22;9726;52.198;8.792;2024-03-23T10:26:21;8.70;68.40
19188;DHT22;9726;52.198;8.792;2024-03-23T10:28:55;9.20;67.10
19188;DHT22;9726;52.198;8.792;2024-03-23T10:31:35;9.50;65.20
19188;DHT22;9726;52.198;8.792;2024-03-23T10:34:03;9.60;64.10
19188;DHT22;9726;52.198;8.792;2024-03-23T10:36:30;9.90;63.90
19188;DHT22;9726;52.198;8.792;2024-03-23T10:38:56;9.80;62.10
19188;DHT22;9726;52.198;8.792;2024-03-23T10:41:32;10.20;64.20
19188;DHT22;9726;52.198;8.792;2024-03-23T10:44:01;10.40;62.20
19188;DHT22;9726;52.198;8.792;2024-03-23T10:46:28;10.40;61.20
19188;DHT22;9726;52.198;8.792;2024-03-23T10:48:54;10.00;59.50
19188;DHT22;9726;52.198;8.792;2024-03-23T10:51:27;9.80;60.80
19188;DHT22;9726;52.198;8.792;2024-03-23T10:53:55;9.50;62.80
19188;DHT22;9726;52.198;8.792;2024-03-23T10:56:25;9.10;68.30
19188;DHT22;9726;52.198;8.792;2024-03-23T10:58:55;8.70;72.30
19188;DHT22;9726;52.198;8.792;2024-03-23T11:01:22;8.00;75.50
19188;DHT22;9726;52.198;8.792;2024-03-23T11:03:49;8.00;78.30
19188;DHT22;9726;52.198;8.792;2024-03-23T11:06:38;8.30;77.50
19188;DHT22;9726;52.198;8.792;2024-03-23T11:09:40;8.30;75.90
19188;DHT22;9726;52.198;8.792;2024-03-23T11:17:20;6.30;79.30
19188;DHT22;9726;52.198;8.792;2024-03-23T11:19:58;6.40;78.80
19188;DHT22;9726;52.198;8.792;2024-03-23T11:22:46;6.60;79.10
19188;DHT22;9726;52.198;8.792;2024-03-23T11:27:44;7.20;75.50
19188;DHT22;9726;52.198;8.792;2024-03-23T11:32:46;7.10;74.70
19188;DHT22;9726;52.198;8.792;2024-03-23T11:35:32;6.60;77.70
19188;DHT22;9726;52.198;8.792;2024-03-23T11:40:32;5.00;84.30
19188;DHT22;9726;52.198;8.792;2024-03-23T11:43:00;4.90;87.00
19188;DHT22;9726;52.198;8.792;2024-03-23T11:45:27;5.20;82.90
19188;DHT22;9726;52.198;8.792;2024-03-23T11:48:11;5.30;84.20
19188;DHT22;9726;52.198;8.792;2024-03-23T11:50:43;5.60;84.70
19188;DHT22;9726;52.198;8.792;2024-03-23T11:55:53;5.90;85.40
19188;DHT22;9726;52.198;8.792;2024-03-23T11:58:20;6.10;85.10
19188;DHT22;9726;52.198;8.792;2024-03-23T12:01:02;6.30;86.20
19188;DHT22;9726;52.198;8.792;2024-03-23T12:03:30;6.90;86.90
19188;DHT22;9726;52.198;8.792;2024-03-23T12:05:59;7.60;85.10
19188;DHT22;9726;52.198;8.792;2024-03-23T12:11:17;7.90;81.30
19188;DHT22;9726;52.198;8.792;2024-03-23T12:13:44;7.80;77.20
19188;DHT22;9726;52.198;8.792;2024-03-23T12:16:19;7.70;76.60
19188;DHT22;9726;52.198;8.792;2024-03-23T12:18:47;7.50;77.70
19188;DHT22;9726;52.198;8.792;2024-03-23T12:21:14;7.30;76.20
19188;DHT22;9726;52.198;8.792;2024-03-23T12:23:40;7.10;77.90
19188;DHT22;9726;52.198;8.792;2024-03-23T12:26:08;7.10;80.10
19188;DHT22;9726;52.198;8.792;2024-03-23T12:28:34;7.10;81.40
19188;DHT22;9726;52.198;8.792;2024-03-23T12:31:00;7.10;80.00
19188;DHT22;9726;52.198;8.792;2024-03-23T12:33:26;7.10;81.60
19188;DHT22;9726;52.198;8.792;2024-03-23T12:35:52;6.90;81.10
19188;DHT22;9726;52.198;8.792;2024-03-23T12:38:19;6.70;81.20
19188;DHT22;9726;52.198;8.792;2024-03-23T12:40:49;6.60;80.90
19188;DHT22;9726;52.198;8.792;2024-03-23T12:43:16;6.90;81.10
19188;DHT22;9726;52.198;8.792;2024-03-23T12:45:49;7.10;79.10
19188;DHT22;9726;52.198;8.792;2024-03-23T12:48:16;7.10;78.00
19188;DHT22;9726;52.198;8.792;2024-03-23T12:50:42;7.10;77.50
19188;DHT22;9726;52.198;8.792;2024-03-23T12:53:08;7.00;78.50
19188;DHT22;9726;52.198;8.792;2024-03-23T12:55:35;6.70;79.90
19188;DHT22;9726;52.198;8.792;2024-03-23T12:58:01;6.60;82.30
19188;DHT22;9726;52.198;8.792;2024-03-23T13:00:28;6.60;82.40
19188;DHT22;9726;52.198;8.792;2024-03-23T13:02:54;6.90;82.90
19188;DHT22;9726;52.198;8.792;2024-03-23T13:05:20;7.20;83.10
19188;DHT22;9726;52.198;8.792;2024-03-23T13:07:46;7.70;81.30
19188;DHT22;9726;52.198;8.792;2024-03-23T13:10:12;7.90;79.80
19188;DHT22;9726;52.198;8.792;2024-03-23T13:12:40;8.00;79.20
19188;DHT22;9726;52.198;8.792;2024-03-23T13:15:06;8.10;77.20
19188;DHT22;9726;52.198;8.792;2024-03-23T13:17:33;7.90;75.70
19188;DHT22;9726;52.198;8.792;2024-03-23T13:19:59;7.80;74.60
19188;DHT22;9726;52.198;8.792;2024-03-23T13:22:25;7.80;74.70
19188;DHT22;9726;52.198;8.792;2024-03-23T13:24:51;7.60;73.80
19188;DHT22;9726;52.198;8.792;2024-03-23T13:27:18;7.20;74.10
19188;DHT22;9726;52.198;8.792;2024-03-23T13:29:44;5.60;81.50
19188;DHT22;9726;52.198;8.792;2024-03-23T13:32:12;4.40;85.50
19188;DHT22;9726;52.198;8.792;2024-03-23T13:34:39;4.20;89.40
19188;DHT22;9726;52.198;8.792;2024-03-23T13:37:06;4.10;90.90
19188;DHT22;9726;52.198;8.792;2024-03-23T13:39:33;4.00;91.00
19188;DHT22;9726;52.198;8.792;2024-03-23T13:41:59;3.90;91.60
19188;DHT22;9726;52.198;8.792;2024-03-23T13:44:25;3.90;91.60
19188;DHT22;9726;52.198;8.792;2024-03-23T13:46:51;3.90;92.10
19188;DHT22;9726;52.198;8.792;2024-03-23T13:49:28;4.00;92.20
19188;DHT22;9726;52.198;8.792;2024-03-23T13:51:56;4.10;93.60
19188;DHT22;9726;52.198;8.792;2024-03-23T13:54:27;4.30;94.10
19188;DHT22;9726;52.198;8.792;2024-03-23T13:56:56;4.70;94.60
19188;DHT22;9726;52.198;8.792;2024-03-23T13:59:23;5.30;95.20
19188;DHT22;9726;52.198;8.792;2024-03-23T14:01:50;6.00;95.50
19188;DHT22;9726;52.198;8.792;2024-03-23T14:04:17;6.40;91.70
19188;DHT22;9726;52.198;8.792;2024-03-23T14:06:45;6.70;87.80
19188;DHT22;9726;52.198;8.792;2024-03-23T14:09:12;6.60;85.30
19188;DHT22;9726;52.198;8.792;2024-03-23T14:11:38;6.70;85.00
19188;DHT22;9726;52.198;8.792;2024-03-23T14:14:06;6.80;84.30
19188;DHT22;9726;52.198;8.792;2024-03-23T14:16:32;7.00;83.00
19188;DHT22;9726;52.198;8.792;2024-03-23T14:18:59;7.10;82.80
19188;DHT22;9726;52.198;8.792;2024-03-23T14:21:26;7.30;79.70
19188;DHT22;9726;52.198;8.792;2024-03-23T14:23:52;7.40;79.90
19188;DHT22;9726;52.198;8.792;2024-03-23T14:26:19;7.30;79.70
19188;DHT22;9726;52.198;8.792;2024-03-23T14:28:46;7.30;80.00
19188;DHT22;9726;52.198;8.792;2024-03-23T14:31:13;7.40;79.60
19188;DHT22;9726;52.198;8.792;2024-03-23T14:33:39;7.60;78.20
19188;DHT22;9726;52.198;8.792;2024-03-23T14:36:16;7.50;78.30
19188;DHT22;9726;52.198;8.792;2024-03-23T14:38:47;7.30;78.00
19188;DHT22;9726;52.198;8.792;2024-03-23T14:41:14;7.10;77.30
19188;DHT22;9726;52.198;8.792;2024-03-23T14:43:40;7.00;78.30
19188;DHT22;9726;52.198;8.792;2024-03-23T14:46:09;6.80;82.00
19188;DHT22;9726;52.198;8.792;2024-03-23T14:48:36;6.50;81.30
19188;DHT22;9726;52.198;8.792;2024-03-23T14:51:03;6.50;84.30
19188;DHT22;9726;52.198;8.792;2024-03-23T14:53:33;6.70;83.40
19188;DHT22;9726;52.198;8.792;2024-03-23T14:56:01;6.80;83.10
19188;DHT22;9726;52.198;8.792;2024-03-23T14:58:28;7.10;82.90
19188;DHT22;9726;52.198;8.792;2024-03-23T15:01:02;7.30;82.60
19188;DHT22;9726;52.198;8.792;2024-03-23T15:03:28;7.50;80.30
19188;DHT22;9726;52.198;8.792;2024-03-23T15:05:57;7.40;79.40
19188;DHT22;9726;52.198;8.792;2024-03-23T15:08:24;7.20;76.00
19188;DHT22;9726;52.198;8.792;2024-03-23T15:10:51;6.70;76.50
19188;DHT22;9726;52.198;8.792;2024-03-23T15:13:17;6.40;79.70
19188;DHT22;9726;52.198;8.792;2024-03-23T15:15:44;6.20;81.10
19188;DHT22;9726;52.198;8.792;2024-03-23T15:18:11;6.20;81.90
19188;DHT22;9726;52.198;8.792;2024-03-23T15:20:42;6.20;81.20
19188;DHT22;9726;52.198;8.792;2024-03-23T15:23:17;6.20;78.00
19188;DHT22;9726;52.198;8.792;2024-03-23T15:25:43;6.10;78.30
19188;DHT22;9726;52.198;8.792;2024-03-23T15:28:09;6.00;78.30
19188;DHT22;9726;52.198;8.792;2024-03-23T15:30:35;6.20;77.80
19188;DHT22;9726;52.198;8.792;2024-03-23T15:33:02;6.40;75.70
19188;DHT22;9726;52.198;8.792;2024-03-23T15:35:28;6.30;75.90
19188;DHT22;9726;52.198;8.792;2024-03-23T15:37:54;6.30;75.50
19188;DHT22;9726;52.198;8.792;2024-03-23T15:40:20;6.30;75.90
19188;DHT22;9726;52.198;8.792;2024-03-23T15:42:47;6.40;76.20
19188;DHT22;9726;52.198;8.792;2024-03-23T15:45:13;6.60;77.10
19188;DHT22;9726;52.198;8.792;2024-03-23T15:47:39;7.00;75.30
19188;DHT22;9726;52.198;8.792;2024-03-23T15:50:06;7.30;74.50
19188;DHT22;9726;52.198;8.792;2024-03-23T15:52:35;7.60;73.40
19188;DHT22;9726;52.198;8.792;2024-03-23T15:55:05;7.70;73.00
19188;DHT22;9726;52.198;8.792;2024-03-23T15:57:35;7.90;72.80
19188;DHT22;9726;52.198;8.792;2024-03-23T16:00:03;7.80;72.60
19188;DHT22;9726;52.198;8.792;2024-03-23T16:02:40;7.50;72.20
19188;DHT22;9726;52.198;8.792;2024-03-23T16:05:07;7.20;71.70
19188;DHT22;9726;52.198;8.792;2024-03-23T16:07:37;7.00;71.70
19188;DHT22;9726;52.198;8.792;2024-03-23T16:10:05;6.90;72.10
19188;DHT22;9726;52.198;8.792;2024-03-23T16:12:35;6.90;72.60
19188;DHT22;9726;52.198;8.792;2024-03-23T16:15:01;7.00;73.80
19188;DHT22;9726;52.198;8.792;2024-03-23T16:17:27;7.00;74.20
19188;DHT22;9726;52.198;8.792;2024-03-23T16:19:53;6.90;73.20
19188;DHT22;9726;52.198;8.792;2024-03-23T16:22:19;6.90;73.50
19188;DHT22;9726;52.198;8.792;2024-03-23T16:24:45;6.80;73.70
19188;DHT22;9726;52.198;8.792;2024-03-23T16:27:12;6.90;74.30
19188;DHT22;9726;52.198;8.792;2024-03-23T16:29:38;6.90;72.00
19188;DHT22;9726;52.198;8.792;2024-03-23T16:32:04;6.80;74.40
19188;DHT22;9726;52.198;8.792;2024-03-23T16:34:30;6.80;76.00
19188;DHT22;9726;52.198;8.792;2024-03-23T16:36:57;6.60;77.20
19188;DHT22;9726;52.198;8.792;2024-03-23T16:39:23;6.50;77.70
19188;DHT22;9726;52.198;8.792;2024-03-23T16:41:50;6.40;77.70
19188;DHT22;9726;52.198;8.792;2024-03-23T16:44:16;6.20;78.60
19188;DHT22;9726;52.198;8.792;2024-03-23T16:46:42;6.20;79.30
19188;DHT22;9726;52.198;8.792;2024-03-23T16:49:10;6.20;78.60
19188;DHT22;9726;52.198;8.792;2024-03-23T16:51:36;6.20;77.80
19188;DHT22;9726;52.198;8.792;2024-03-23T16:54:02;6.20;77.90
19188;DHT22;9726;52.198;8.792;2024-03-23T16:56:28;6.30;78.30
19188;DHT22;9726;52.198;8.792;2024-03-23T16:58:55;6.30;79.10
19188;DHT22;9726;52.198;8.792;2024-03-23T17:01:21;6.40;79.30
19188;DHT22;9726;52.198;8.792;2024-03-23T17:03:50;6.30;79.40
19188;DHT22;9726;52.198;8.792;2024-03-23T17:06:19;6.00;78.10
19188;DHT22;9726;52.198;8.792;2024-03-23T17:08:46;5.10;81.20
19188;DHT22;9726;52.198;8.792;2024-03-23T17:11:16;4.40;86.10
19188;DHT22;9726;52.198;8.792;2024-03-23T17:13:50;4.00;89.20
19188;DHT22;9726;52.198;8.792;2024-03-23T17:16:18;3.70;91.50
19188;DHT22;9726;52.198;8.792;2024-03-23T17:18:44;3.60;92.60